createdAt,value
2022-11-28T00:01:33.958Z,96135.19
2022-11-28T00:04:01.137Z,96133.83
2022-11-28T00:06:28.614Z,96131.06
2022-11-28T00:08:58.713Z,96130.65
2022-11-28T00:11:25.696Z,96129.75
2022-11-28T00:13:53.854Z,96124.86
2022-11-28T00:16:22.693Z,96126.30
2022-11-28T00:18:51.418Z,96125.91
2022-11-28T00:21:18.867Z,96122.79
2022-11-28T00:23:47.004Z,96122.91
2022-11-28T00:26:17.712Z,96122.67
2022-11-28T00:28:44.875Z,96124.41
2022-11-28T00:31:21.174Z,96123.83
2022-11-28T00:33:48.362Z,96124.38
2022-11-28T00:36:15.277Z,96130.13
2022-11-28T00:38:42.124Z,96135.19
2022-11-28T00:41:13.480Z,96139.59
2022-11-28T00:43:41.922Z,96138.98
2022-11-28T00:46:10.170Z,96138.09
2022-11-28T00:48:37.016Z,96137.23
2022-11-28T00:51:08.535Z,96132.35
2022-11-28T00:53:36.694Z,96131.31
2022-11-28T00:56:05.221Z,96129.46
2022-11-28T00:58:33.299Z,96122.86
2022-11-28T01:01:00.765Z,96121.00
2022-11-28T01:03:27.596Z,96121.05
2022-11-28T01:05:54.310Z,96120.19
2022-11-28T01:08:21.013Z,96120.42
2022-11-28T01:10:47.719Z,96120.73
2022-11-28T01:13:14.485Z,96120.29
2022-11-28T01:15:42.072Z,96114.80
2022-11-28T01:18:09.411Z,96120.14
2022-11-28T01:20:36.227Z,96116.69
2022-11-28T01:23:03.020Z,96114.48
2022-11-28T01:25:29.981Z,96113.73
2022-11-28T01:27:56.885Z,96115.15
2022-11-28T01:30:24.944Z,96113.16
2022-11-28T01:32:51.724Z,96113.91
2022-11-28T01:35:18.787Z,96110.09
2022-11-28T01:37:45.680Z,96111.98
2022-11-28T01:40:13.368Z,96109.81
2022-11-28T01:42:40.177Z,96109.98
2022-11-28T01:45:19.016Z,96109.81
2022-11-28T01:47:47.523Z,96104.90
2022-11-28T01:50:15.161Z,96106.02
2022-11-28T01:52:45.034Z,96104.49
2022-11-28T01:55:16.817Z,96109.38
2022-11-28T01:57:43.908Z,96110.48
2022-11-28T02:00:16.313Z,96105.52
2022-11-28T02:03:00.221Z,96107.66
2022-11-28T02:05:26.927Z,96104.17
2022-11-28T02:07:53.758Z,96102.19
2022-11-28T02:10:28.213Z,96100.99
2022-11-28T02:13:13.615Z,96098.13
2022-11-28T02:15:46.228Z,96098.27
2022-11-28T02:18:19.118Z,96094.95
2022-11-28T02:21:13.129Z,96093.81
2022-11-28T02:24:01.393Z,96089.36
2022-11-28T02:26:30.847Z,96090.77
2022-11-28T02:29:15.838Z,96091.11
2022-11-28T02:32:20.177Z,96084.52
2022-11-28T02:35:05.512Z,96083.77
2022-11-28T02:37:58.288Z,96078.38
2022-11-28T02:40:36.386Z,96079.98
2022-11-28T02:43:07.535Z,96080.66
2022-11-28T02:46:00.825Z,96078.52
2022-11-28T02:48:30.342Z,96076.16
2022-11-28T02:51:16.155Z,96072.67
2022-11-28T02:53:45.549Z,96074.44
2022-11-28T02:56:12.889Z,96071.77
2022-11-28T02:58:39.613Z,96073.66
2022-11-28T03:01:17.374Z,96068.99
2022-11-28T03:03:50.274Z,96066.85
2022-11-28T03:06:35.648Z,96063.90
2022-11-28T03:09:14.773Z,96065.02
2022-11-28T03:12:15.493Z,96061.39
2022-11-28T03:14:51.040Z,96058.27
2022-11-28T03:17:20.700Z,96055.61
2022-11-28T03:20:12.504Z,96054.89
2022-11-28T03:23:06.097Z,96054.77
2022-11-28T03:25:35.909Z,96053.09
2022-11-28T03:28:13.837Z,96055.05
2022-11-28T03:30:50.282Z,96055.55
2022-11-28T03:33:20.592Z,96055.98
2022-11-28T03:35:57.691Z,96058.13
2022-11-28T03:38:38.031Z,96058.29
2022-11-28T03:41:14.087Z,96055.33
2022-11-28T03:43:46.762Z,96054.97
2022-11-28T03:46:17.873Z,96058.17
2022-11-28T03:48:50.146Z,96056.88
2022-11-28T03:51:36.670Z,96054.48
2022-11-28T03:54:11.185Z,96055.69
2022-11-28T03:56:50.159Z,96058.38
2022-11-28T03:59:23.621Z,96059.87
2022-11-28T04:02:07.138Z,96056.90
2022-11-28T04:04:54.361Z,96055.80
2022-11-28T04:07:25.500Z,96055.38
2022-11-28T04:09:54.916Z,96054.30
2022-11-28T04:12:39.925Z,96056.40
2022-11-28T04:15:26.229Z,96056.00
2022-11-28T04:18:10.628Z,96058.95
2022-11-28T04:20:53.200Z,96059.44
2022-11-28T04:23:21.455Z,96058.98
2022-11-28T04:25:58.479Z,96063.36
2022-11-28T04:28:29.437Z,96063.92
2022-11-28T04:30:58.589Z,96067.56
2022-11-28T04:33:29.763Z,96066.60
2022-11-28T04:35:57.918Z,96065.63
2022-11-28T04:38:27.921Z,96066.84
2022-11-28T04:41:04.310Z,96065.73
2022-11-28T04:43:34.928Z,96064.55
2022-11-28T04:46:17.424Z,96064.32
2022-11-28T04:48:44.753Z,96067.39
2022-11-28T04:51:18.327Z,96066.31
2022-11-28T04:53:52.070Z,96068.68
2022-11-28T04:56:33.834Z,96069.30
2022-11-28T04:59:01.516Z,96066.14
2022-11-28T05:01:31.787Z,96067.91
2022-11-28T05:03:59.264Z,96061.36
2022-11-28T05:06:36.498Z,96059.52
2022-11-28T05:09:04.348Z,96059.77
2022-11-28T05:11:31.782Z,96059.73
2022-11-28T05:13:58.450Z,96060.55
2022-11-28T05:16:25.452Z,96059.64
2022-11-28T05:18:52.287Z,96059.72
2022-11-28T05:21:19.257Z,96061.02
2022-11-28T05:23:46.265Z,96060.75
2022-11-28T05:26:19.559Z,96052.83
2022-11-28T05:28:49.172Z,96054.63
2022-11-28T05:31:18.162Z,96059.64
2022-11-28T05:33:44.943Z,96055.63
2022-11-28T05:36:13.866Z,96057.00
2022-11-28T05:38:42.990Z,96057.56
2022-11-28T05:41:25.366Z,96057.34
2022-11-28T05:43:57.590Z,96056.10
2022-11-28T05:46:27.260Z,96052.55
2022-11-28T05:48:54.616Z,96051.13
2022-11-28T05:51:21.891Z,96055.34
2022-11-28T05:53:48.922Z,96053.11
2022-11-28T05:56:20.395Z,96053.46
2022-11-28T05:58:47.869Z,96055.57
2022-11-28T06:01:22.704Z,96054.58
2022-11-28T06:03:57.539Z,96055.59
2022-11-28T06:06:26.854Z,96057.36
2022-11-28T06:08:55.213Z,96058.70
2022-11-28T06:11:24.588Z,96060.67
2022-11-28T06:13:52.687Z,96062.54
2022-11-28T06:16:27.768Z,96058.09
2022-11-28T06:19:06.297Z,96058.91
2022-11-28T06:21:38.784Z,96057.98
2022-11-28T06:24:10.441Z,96060.79
2022-11-28T06:26:38.820Z,96059.54
2022-11-28T06:29:08.345Z,96058.23
2022-11-28T06:31:36.280Z,96058.94
2022-11-28T06:34:04.902Z,96054.55
2022-11-28T06:36:35.830Z,96057.05
2022-11-28T06:39:05.499Z,96058.48
2022-11-28T06:41:35.636Z,96054.61
2022-11-28T06:44:05.143Z,96058.33
2022-11-28T06:46:34.263Z,96058.23
2022-11-28T06:49:02.780Z,96057.84
2022-11-28T06:51:30.110Z,96056.66
2022-11-28T06:53:58.206Z,96057.11
2022-11-28T06:56:26.649Z,96055.08
2022-11-28T06:58:57.832Z,96051.64
2022-11-28T07:01:28.235Z,96050.80
2022-11-28T07:03:56.809Z,96047.58
2022-11-28T07:06:26.127Z,96048.02
2022-11-28T07:08:58.577Z,96047.06
2022-11-28T07:11:31.322Z,96045.11
2022-11-28T07:14:01.573Z,96042.70
2022-11-28T07:16:33.124Z,96038.86
2022-11-28T07:19:00.329Z,96038.45
2022-11-28T07:21:29.658Z,96041.67
2022-11-28T07:23:59.149Z,96042.08
2022-11-28T07:26:26.899Z,96044.75
2022-11-28T07:28:55.633Z,96042.66
2022-11-28T07:31:31.431Z,96042.74
2022-11-28T07:34:00.629Z,96043.42
2022-11-28T07:36:28.797Z,96040.85
2022-11-28T07:39:02.392Z,96044.86
2022-11-28T07:41:29.992Z,96042.03
2022-11-28T07:43:59.752Z,96035.05
2022-11-28T07:46:29.035Z,96034.81
2022-11-28T07:48:59.690Z,96030.29
2022-11-28T07:51:31.038Z,96025.41
2022-11-28T07:53:58.585Z,96026.90
2022-11-28T07:56:39.339Z,96022.55
2022-11-28T07:59:11.842Z,96019.84
2022-11-28T08:01:39.013Z,96017.49
2022-11-28T08:04:08.430Z,96010.58
2022-11-28T08:06:41.505Z,96009.97
2022-11-28T08:09:11.722Z,96005.02
2022-11-28T08:11:40.807Z,96005.83
2022-11-28T08:14:09.018Z,96006.26
2022-11-28T08:16:39.359Z,96003.66
2022-11-28T08:19:07.566Z,96000.67
2022-11-28T08:21:35.146Z,96002.77
2022-11-28T08:24:04.122Z,96000.36
2022-11-28T08:26:32.483Z,95999.26
2022-11-28T08:29:04.729Z,96002.84
2022-11-28T08:31:41.059Z,96001.05
2022-11-28T08:34:10.417Z,96000.16
2022-11-28T08:36:39.744Z,96000.41
2022-11-28T08:39:26.209Z,95999.58
2022-11-28T08:41:57.879Z,95993.71
2022-11-28T08:44:47.416Z,95989.73
2022-11-28T08:47:15.404Z,95991.77
2022-11-28T08:49:42.692Z,95990.03
2022-11-28T08:52:10.549Z,95991.45
2022-11-28T08:54:38.080Z,95984.02
2022-11-28T08:57:05.690Z,95981.42
2022-11-28T08:59:33.175Z,95981.25
2022-11-28T09:02:02.250Z,95983.04
2022-11-28T09:04:29.283Z,95973.05
2022-11-28T09:06:58.741Z,95972.95
2022-11-28T09:09:32.581Z,95970.95
2022-11-28T09:12:00.870Z,95972.31
2022-11-28T09:14:29.312Z,95967.12
2022-11-28T09:17:00.211Z,95963.37
2022-11-28T09:19:29.476Z,95966.74
2022-11-28T09:22:01.105Z,95957.44
2022-11-28T09:24:32.024Z,95960.08
2022-11-28T09:27:03.782Z,95960.13
2022-11-28T09:29:32.739Z,95958.58
2022-11-28T09:32:03.064Z,95957.30
2022-11-28T09:34:35.584Z,95951.18
2022-11-28T09:37:06.576Z,95948.82
2022-11-28T09:39:50.274Z,95942.94
2022-11-28T09:42:43.931Z,95943.83
2022-11-28T09:45:15.317Z,95940.16
2022-11-28T09:48:01.452Z,95937.67
2022-11-28T09:50:36.499Z,95931.45
2022-11-28T09:53:12.714Z,95924.16
2022-11-28T09:55:54.257Z,95923.32
2022-11-28T09:58:27.255Z,95916.84
2022-11-28T10:01:27.569Z,95917.38
2022-11-28T10:04:20.144Z,95912.94
2022-11-28T10:07:18.396Z,95912.72
2022-11-28T10:10:21.616Z,95907.77
2022-11-28T10:13:02.667Z,95912.03
2022-11-28T10:15:58.358Z,95915.15
2022-11-28T10:18:38.894Z,95911.69
2022-11-28T10:21:38.610Z,95911.87
2022-11-28T10:25:02.267Z,95907.02
2022-11-28T10:27:45.017Z,95905.88
2022-11-28T10:31:07.225Z,95905.35
2022-11-28T10:34:26.451Z,95902.83
2022-11-28T10:37:06.534Z,95897.45
2022-11-28T10:39:41.013Z,95902.56
2022-11-28T10:42:24.417Z,95904.59
2022-11-28T10:45:20.123Z,95906.48
2022-11-28T10:47:56.333Z,95903.53
2022-11-28T10:50:45.742Z,95903.46
2022-11-28T10:53:27.259Z,95904.61
2022-11-28T10:56:28.394Z,95901.71
2022-11-28T10:59:23.832Z,95901.60
2022-11-28T11:01:52.728Z,95903.77
2022-11-28T11:04:24.000Z,95898.00
2022-11-28T11:07:29.311Z,95896.86
2022-11-28T11:10:21.409Z,95895.83
2022-11-28T11:12:52.131Z,95897.61
2022-11-28T11:15:22.997Z,95899.27
2022-11-28T11:17:51.607Z,95896.67
2022-11-28T11:20:27.781Z,95891.17
2022-11-28T11:23:38.037Z,95890.00
2022-11-28T11:26:11.439Z,95890.81
2022-11-28T11:28:44.926Z,95889.88
2022-11-28T11:31:34.729Z,95885.64
2022-11-28T11:34:15.377Z,95886.50
2022-11-28T11:36:42.656Z,95882.38
2022-11-28T11:39:11.074Z,95879.65
2022-11-28T11:42:18.857Z,95879.81
2022-11-28T11:44:46.151Z,95879.44
2022-11-28T11:47:13.109Z,95876.98
2022-11-28T11:49:43.524Z,95877.88
2022-11-28T11:52:17.446Z,95875.86
2022-11-28T11:54:56.928Z,95877.10
2022-11-28T11:57:33.493Z,95874.27
2022-11-28T12:00:10.407Z,95879.52
2022-11-28T12:03:06.515Z,95882.92
2022-11-28T12:08:51.049Z,95881.37
2022-11-28T12:11:30.008Z,95878.05
2022-11-28T12:14:21.353Z,95879.77
2022-11-28T12:16:58.052Z,95883.10
2022-11-28T12:19:32.177Z,95885.80
2022-11-28T12:22:14.134Z,95883.70
2022-11-28T12:25:02.437Z,95885.98
2022-11-28T12:28:14.696Z,95889.98
2022-11-28T12:30:50.969Z,95889.31
2022-11-28T12:33:51.872Z,95886.77
2022-11-28T12:36:31.356Z,95885.56
2022-11-28T12:39:00.236Z,95882.82
2022-11-28T12:42:06.855Z,95879.67
2022-11-28T12:44:33.812Z,95881.04
2022-11-28T12:47:18.788Z,95879.09
2022-11-28T12:49:57.598Z,95881.80
2022-11-28T12:52:51.429Z,95880.72
2022-11-28T12:56:03.671Z,95879.75
2022-11-28T12:58:54.098Z,95877.90
2022-11-28T13:01:35.515Z,95878.05
2022-11-28T13:04:47.492Z,95881.47
2022-11-28T13:07:39.520Z,95880.09
2022-11-28T13:10:14.894Z,95881.92
2022-11-28T13:13:03.510Z,95880.54
2022-11-28T13:15:36.556Z,95883.61
2022-11-28T13:18:29.281Z,95884.08
2022-11-28T13:21:24.524Z,95883.07
2022-11-28T13:24:07.572Z,95888.23
2022-11-28T13:26:58.405Z,95890.91
2022-11-28T13:29:52.850Z,95888.73
2022-11-28T13:32:29.950Z,95888.59
2022-11-28T13:34:58.234Z,95886.92
2022-11-28T13:40:35.128Z,95886.27
2022-11-28T13:43:07.937Z,95879.86
2022-11-28T13:45:40.784Z,95881.73
2022-11-28T13:51:35.136Z,95877.66
2022-11-28T13:54:25.156Z,95876.55
2022-11-28T13:57:10.111Z,95878.67
2022-11-28T13:59:37.873Z,95880.65
2022-11-28T14:02:21.625Z,95878.30
2022-11-28T14:04:49.121Z,95880.50
2022-11-28T14:07:31.463Z,95878.89
2022-11-28T14:10:29.748Z,95877.34
2022-11-28T14:13:22.639Z,95872.85
2022-11-28T14:16:01.092Z,95870.77
2022-11-28T14:19:02.042Z,95870.89
2022-11-28T14:21:40.917Z,95874.79
2022-11-28T14:24:10.675Z,95876.13
2022-11-28T14:26:40.075Z,95871.13
2022-11-28T14:29:21.114Z,95870.05
2022-11-28T14:32:21.934Z,95875.08
2022-11-28T14:34:48.073Z,95872.61
2022-11-28T14:37:21.130Z,95867.02
2022-11-28T14:39:52.293Z,95867.48
2022-11-28T14:45:40.162Z,95867.60
2022-11-28T14:48:17.708Z,95867.92
2022-11-28T14:50:54.591Z,95865.55
2022-11-28T14:53:41.758Z,95861.56
2022-11-28T14:56:29.463Z,95863.27
2022-11-28T14:59:01.279Z,95864.66
2022-11-28T15:01:46.525Z,95866.33
2022-11-28T15:04:34.845Z,95865.41
2022-11-28T15:07:03.664Z,95860.05
2022-11-28T15:10:07.247Z,95862.50
2022-11-28T15:12:59.531Z,95857.27
2022-11-28T15:15:28.625Z,95860.96
2022-11-28T15:17:59.433Z,95858.29
2022-11-28T15:20:32.758Z,95856.27
2022-11-28T15:23:00.369Z,95856.55
2022-11-28T15:25:36.734Z,95852.57
2022-11-28T15:28:18.560Z,95849.74
2022-11-28T15:30:49.593Z,95850.17
2022-11-28T15:33:17.118Z,95849.58
2022-11-28T15:35:57.758Z,95846.57
2022-11-28T15:38:27.481Z,95849.23
2022-11-28T15:40:56.554Z,95855.63
2022-11-28T15:43:25.355Z,95853.68
2022-11-28T15:46:02.061Z,95852.23
2022-11-28T15:48:51.788Z,95853.38
2022-11-28T15:51:34.993Z,95853.11
2022-11-28T15:54:32.164Z,95859.11
2022-11-28T15:57:00.748Z,95857.77
2022-11-28T15:59:29.341Z,95859.19
2022-11-28T16:02:10.933Z,95863.16
2022-11-28T16:04:38.401Z,95859.19
2022-11-28T16:07:06.333Z,95857.63
2022-11-28T16:09:35.096Z,95860.26
2022-11-28T16:12:04.690Z,95864.08
2022-11-28T16:14:35.148Z,95863.98
2022-11-28T16:17:09.817Z,95861.21
2022-11-28T16:19:37.402Z,95858.69
2022-11-28T16:22:08.929Z,95864.16
2022-11-28T16:24:48.454Z,95865.10
2022-11-28T16:27:34.921Z,95861.44
2022-11-28T16:30:23.248Z,95864.38
2022-11-28T16:32:52.180Z,95865.84
2022-11-28T16:35:28.407Z,95869.65
2022-11-28T16:38:18.537Z,95864.54
2022-11-28T16:40:45.246Z,95864.64
2022-11-28T16:43:32.817Z,95867.73
2022-11-28T16:46:05.983Z,95870.03
2022-11-28T16:48:45.856Z,95864.83
2022-11-28T16:51:21.570Z,95867.29
2022-11-28T16:53:55.030Z,95865.19
2022-11-28T16:56:29.582Z,95862.81
2022-11-28T16:59:14.325Z,95864.38
2022-11-28T17:01:45.271Z,95863.92
2022-11-28T17:04:26.858Z,95868.87
2022-11-28T17:06:57.588Z,95868.53
2022-11-28T17:09:24.494Z,95867.92
2022-11-28T17:11:54.471Z,95869.84
2022-11-28T17:14:22.250Z,95867.20
2022-11-28T17:16:49.419Z,95863.77
2022-11-28T17:19:17.061Z,95864.75
2022-11-28T17:21:57.173Z,95863.20
2022-11-28T17:24:35.378Z,95864.08
2022-11-28T17:27:03.543Z,95866.59
2022-11-28T17:29:30.320Z,95869.61
2022-11-28T17:31:58.320Z,95869.08
2022-11-28T17:34:27.284Z,95870.19
2022-11-28T17:36:54.453Z,95865.55
2022-11-28T17:39:21.391Z,95866.48
2022-11-28T17:41:49.120Z,95864.30
2022-11-28T17:44:22.233Z,95866.99
2022-11-28T17:46:50.636Z,95865.80
2022-11-28T17:49:18.694Z,95867.73
2022-11-28T17:51:45.826Z,95864.55
2022-11-28T17:54:16.105Z,95866.18
2022-11-28T17:56:45.761Z,95868.20
2022-11-28T17:59:14.576Z,95868.61
2022-11-28T18:01:46.954Z,95870.84
2022-11-28T18:04:13.761Z,95873.50
2022-11-28T18:06:45.699Z,95872.33
2022-11-28T18:09:14.443Z,95873.75
2022-11-28T18:11:42.440Z,95875.55
2022-11-28T18:14:09.895Z,95874.23
2022-11-28T18:16:39.090Z,95871.11
2022-11-28T18:19:07.350Z,95871.61
2022-11-28T18:21:34.211Z,95873.77
2022-11-28T18:24:02.103Z,95876.05
2022-11-28T18:26:29.781Z,95881.59
2022-11-28T18:28:58.371Z,95876.54
2022-11-28T18:31:28.317Z,95879.78
2022-11-28T18:34:02.073Z,95882.62
2022-11-28T18:36:36.273Z,95881.46
2022-11-28T18:39:10.695Z,95882.67
2022-11-28T18:41:39.687Z,95881.48
2022-11-28T18:44:10.118Z,95880.10
2022-11-28T18:46:38.576Z,95884.42
2022-11-28T18:49:05.497Z,95880.78
2022-11-28T18:51:34.100Z,95881.89
2022-11-28T18:54:05.116Z,95884.27
2022-11-28T18:56:33.082Z,95885.27
2022-11-28T18:58:59.842Z,95885.98
2022-11-28T19:01:33.007Z,95886.60
2022-11-28T19:04:06.751Z,95887.74
2022-11-28T19:06:35.584Z,95882.62
2022-11-28T19:09:07.447Z,95882.96
2022-11-28T19:11:34.995Z,95883.44
2022-11-28T19:14:02.900Z,95882.99
2022-11-28T19:16:32.859Z,95880.66
2022-11-28T19:19:01.849Z,95882.15
2022-11-28T19:21:32.190Z,95879.11
2022-11-28T19:24:03.742Z,95878.95
2022-11-28T19:26:36.473Z,95882.89
2022-11-28T19:29:05.310Z,95885.64
2022-11-28T19:31:34.599Z,95882.48
2022-11-28T19:34:06.394Z,95882.41
2022-11-28T19:37:05.260Z,95885.77
2022-11-28T19:39:32.224Z,95884.48
2022-11-28T19:41:59.867Z,95883.65
2022-11-28T19:44:28.490Z,95879.27
2022-11-28T19:46:55.831Z,95883.48
2022-11-28T19:49:24.531Z,95882.48
2022-11-28T19:51:53.461Z,95884.52
2022-11-28T19:54:20.987Z,95887.62
2022-11-28T19:56:49.076Z,95891.75
2022-11-28T19:59:16.433Z,95889.05
2022-11-28T20:01:43.820Z,95885.10
2022-11-28T20:04:12.133Z,95882.52
2022-11-28T20:06:38.916Z,95880.16
2022-11-28T20:09:08.574Z,95879.34
2022-11-28T20:11:38.130Z,95881.30
2022-11-28T20:14:09.571Z,95883.38
2022-11-28T20:16:37.284Z,95890.86
2022-11-28T20:19:05.679Z,95891.11
2022-11-28T20:21:34.152Z,95891.61
2022-11-28T20:24:04.705Z,95894.13
2022-11-28T20:26:37.329Z,95894.75
2022-11-28T20:29:04.764Z,95892.75
2022-11-28T20:31:36.655Z,95894.45
2022-11-28T20:34:05.500Z,95894.13
2022-11-28T20:36:33.781Z,95893.83
2022-11-28T20:39:04.848Z,95892.10
2022-11-28T20:41:32.422Z,95890.48
2022-11-28T20:44:00.313Z,95892.06
2022-11-28T20:46:30.401Z,95897.88
2022-11-28T20:48:59.643Z,95903.52
2022-11-28T20:51:28.511Z,95903.71
2022-11-28T20:53:57.347Z,95904.48
2022-11-28T20:56:28.661Z,95898.17
2022-11-28T20:58:58.128Z,95901.14
2022-11-28T21:01:27.409Z,95897.20
2022-11-28T21:03:54.363Z,95897.21
2022-11-28T21:06:21.338Z,95893.34
2022-11-28T21:08:48.356Z,95893.67
2022-11-28T21:11:43.468Z,95897.94
2022-11-28T21:14:05.711Z,95891.11
2022-11-28T21:16:33.446Z,95889.70
2022-11-28T21:19:08.873Z,95890.96
2022-11-28T21:21:39.028Z,95889.73
2022-11-28T21:24:09.877Z,95889.02
2022-11-28T21:26:42.376Z,95889.06
2022-11-28T21:29:13.115Z,95891.95
2022-11-28T21:31:42.537Z,95894.80
2022-11-28T21:34:13.654Z,95898.35
2022-11-28T21:36:40.406Z,95896.41
2022-11-28T21:39:07.182Z,95897.38
2022-11-28T21:41:34.302Z,95897.35
2022-11-28T21:44:01.507Z,95895.46
2022-11-28T21:46:28.511Z,95895.23
2022-11-28T21:48:57.151Z,95886.15
2022-11-28T21:51:28.260Z,95884.91
2022-11-28T21:53:58.591Z,95887.14
2022-11-28T21:56:26.208Z,95881.15
2022-11-28T21:58:53.977Z,95884.70
2022-11-28T22:01:21.739Z,95888.77
2022-11-28T22:03:48.986Z,95887.54
2022-11-28T22:06:20.423Z,95888.66
2022-11-28T22:08:49.286Z,95888.41
2022-11-28T22:11:16.837Z,95887.06
2022-11-28T22:13:46.887Z,95887.08
2022-11-28T22:16:13.893Z,95886.90
2022-11-28T22:18:40.762Z,95888.30
2022-11-28T22:21:22.575Z,95887.92
2022-11-28T22:23:57.892Z,95885.63
2022-11-28T22:26:24.578Z,95885.69
2022-11-28T22:28:53.736Z,95887.55
2022-11-28T22:31:22.440Z,95882.57
2022-11-28T22:33:50.045Z,95882.86
2022-11-28T22:36:19.003Z,95879.40
2022-11-28T22:38:47.475Z,95876.69
2022-11-28T22:41:26.416Z,95876.05
2022-11-28T22:43:58.740Z,95871.91
2022-11-28T22:46:25.439Z,95872.20
2022-11-28T22:48:52.251Z,95875.11
2022-11-28T22:51:21.646Z,95875.98
2022-11-28T22:53:55.743Z,95873.06
2022-11-28T22:56:25.081Z,95871.50
2022-11-28T22:58:52.244Z,95870.48
2022-11-28T23:01:25.972Z,95863.69
2022-11-28T23:03:53.989Z,95862.06
2022-11-28T23:06:24.344Z,95857.50
2022-11-28T23:08:55.490Z,95858.11
2022-11-28T23:11:25.922Z,95857.76
2022-11-28T23:13:57.019Z,95859.64
2022-11-28T23:16:30.818Z,95860.41
2022-11-28T23:19:01.299Z,95860.68
2022-11-28T23:21:31.999Z,95864.87
2022-11-28T23:23:59.459Z,95864.19
2022-11-28T23:26:29.076Z,95862.95
2022-11-28T23:28:58.752Z,95862.52
2022-11-28T23:31:30.965Z,95862.11
2022-11-28T23:33:59.441Z,95863.77
2022-11-28T23:36:41.446Z,95867.56
2022-11-28T23:39:15.590Z,95869.30
2022-11-28T23:41:43.659Z,95871.92
2022-11-28T23:44:12.348Z,95870.08
2022-11-28T23:46:39.467Z,95869.56
2022-11-28T23:49:07.125Z,95870.06
2022-11-28T23:51:34.333Z,95870.88
2022-11-28T23:54:01.124Z,95872.81
2022-11-28T23:56:30.329Z,95871.99
2022-11-28T23:58:59.421Z,95869.13
